createdAt,value
2022-10-08T00:00:25.197Z,15.90
2022-10-08T00:04:06.906Z,14.90
2022-10-08T00:07:33.817Z,17.50
2022-10-08T00:11:03.373Z,19.00
2022-10-08T00:14:30.144Z,18.60
2022-10-08T00:17:57.125Z,18.90
2022-10-08T00:21:26.130Z,20.90
2022-10-08T00:24:55.785Z,21.30
2022-10-08T00:28:23.109Z,19.40
2022-10-08T00:31:51.932Z,20.60
2022-10-08T00:35:19.557Z,21.60
2022-10-08T00:38:46.483Z,20.60
2022-10-08T00:42:14.722Z,21.70
2022-10-08T00:45:43.437Z,22.30
2022-10-08T00:49:20.331Z,21.70
2022-10-08T00:52:50.811Z,20.00
2022-10-08T00:56:17.481Z,20.20
2022-10-08T00:59:44.552Z,21.40
2022-10-08T01:03:12.178Z,21.50
2022-10-08T01:06:47.755Z,17.80
2022-10-08T01:10:26.287Z,17.70
2022-10-08T01:14:05.930Z,16.50
2022-10-08T01:17:45.627Z,16.70
2022-10-08T01:21:17.652Z,16.80
2022-10-08T01:25:05.999Z,17.00
2022-10-08T01:28:36.770Z,18.00
2022-10-08T01:32:06.041Z,17.30
2022-10-08T01:35:37.982Z,17.80
2022-10-08T01:39:10.357Z,18.00
2022-10-08T01:42:40.587Z,19.10
2022-10-08T01:46:12.739Z,22.10
2022-10-08T01:49:44.101Z,22.90
2022-10-08T01:53:15.105Z,20.30
2022-10-08T01:56:44.829Z,24.60
2022-10-08T02:00:16.644Z,29.80
2022-10-08T02:04:03.652Z,29.00
2022-10-08T02:07:33.165Z,26.20
2022-10-08T02:10:59.871Z,23.70
2022-10-08T02:14:29.090Z,21.50
2022-10-08T02:18:06.463Z,20.70
2022-10-08T02:21:35.285Z,21.00
2022-10-08T02:25:08.423Z,21.20
2022-10-08T02:28:41.291Z,22.30
2022-10-08T02:32:14.822Z,21.60
2022-10-08T02:35:46.115Z,23.00
2022-10-08T02:39:15.548Z,23.30
2022-10-08T02:42:46.210Z,23.50
2022-10-08T02:46:17.469Z,23.40
2022-10-08T02:49:50.664Z,23.30
2022-10-08T02:53:18.958Z,22.30
2022-10-08T02:56:52.874Z,20.60
2022-10-08T03:00:20.312Z,21.50
2022-10-08T03:03:53.859Z,21.80
2022-10-08T03:07:23.237Z,20.00
2022-10-08T03:10:50.403Z,20.30
2022-10-08T03:14:20.488Z,20.40
2022-10-08T03:17:50.315Z,20.80
2022-10-08T03:21:18.228Z,20.40
2022-10-08T03:24:44.976Z,21.30
2022-10-08T03:28:11.863Z,21.10
2022-10-08T03:31:38.709Z,22.00
2022-10-08T03:35:05.574Z,22.50
2022-10-08T03:38:34.992Z,24.40
2022-10-08T03:42:01.731Z,23.20
2022-10-08T03:45:28.352Z,23.60
2022-10-08T03:48:54.938Z,23.90
2022-10-08T03:52:21.756Z,22.10
2022-10-08T03:55:48.317Z,22.40
2022-10-08T03:59:15.056Z,23.30
2022-10-08T04:02:42.035Z,22.60
2022-10-08T04:06:09.806Z,22.90
2022-10-08T04:09:36.667Z,22.30
2022-10-08T04:13:04.815Z,20.70
2022-10-08T04:16:31.620Z,21.00
2022-10-08T04:19:58.777Z,20.80
2022-10-08T04:23:25.321Z,21.10
2022-10-08T04:27:02.706Z,21.80
2022-10-08T04:30:31.453Z,23.30
2022-10-08T04:33:58.236Z,26.60
2022-10-08T04:37:24.758Z,24.80
2022-10-08T04:41:02.407Z,23.90
2022-10-08T04:44:29.159Z,25.20
2022-10-08T04:47:55.594Z,26.30
2022-10-08T04:51:24.616Z,24.90
2022-10-08T04:54:51.795Z,23.40
2022-10-08T04:58:18.298Z,24.20
2022-10-08T05:01:45.037Z,20.80
2022-10-08T05:05:12.617Z,21.40
2022-10-08T05:08:42.137Z,19.60
2022-10-08T05:12:09.117Z,20.80
2022-10-08T05:15:37.491Z,21.00
2022-10-08T05:19:04.912Z,20.00
2022-10-08T05:22:31.821Z,21.10
2022-10-08T05:25:58.564Z,21.50
2022-10-08T05:29:25.073Z,22.60
2022-10-08T05:32:51.759Z,22.90
2022-10-08T05:36:22.290Z,21.40
2022-10-08T05:39:48.770Z,21.20
2022-10-08T05:43:15.308Z,22.80
2022-10-08T05:46:42.772Z,21.20
2022-10-08T05:50:11.389Z,23.30
2022-10-08T05:53:41.393Z,21.00
2022-10-08T05:57:07.975Z,20.40
2022-10-08T06:00:34.334Z,21.20
2022-10-08T06:04:08.537Z,21.00
2022-10-08T06:07:36.060Z,21.60
2022-10-08T06:11:03.127Z,21.50
2022-10-08T06:14:29.866Z,20.60
2022-10-08T06:17:57.583Z,21.50
2022-10-08T06:21:26.430Z,20.80
2022-10-08T06:24:53.174Z,21.00
2022-10-08T06:28:20.026Z,21.80
2022-10-08T06:31:47.082Z,21.00
2022-10-08T06:35:14.342Z,21.80
2022-10-08T06:38:41.077Z,20.50
2022-10-08T06:42:08.622Z,21.90
2022-10-08T06:45:40.947Z,22.60
2022-10-08T06:49:08.394Z,24.40
2022-10-08T06:52:35.164Z,22.80
2022-10-08T06:56:03.417Z,22.40
2022-10-08T06:59:30.121Z,22.80
2022-10-08T07:02:57.519Z,21.20
2022-10-08T07:06:25.883Z,20.50
2022-10-08T07:09:52.313Z,22.20
2022-10-08T07:13:18.898Z,20.10
2022-10-08T07:16:46.033Z,19.30
2022-10-08T07:20:13.194Z,17.10
2022-10-08T07:23:42.602Z,18.30
2022-10-08T07:27:10.814Z,18.20
2022-10-08T07:30:39.446Z,18.00
2022-10-08T07:34:08.411Z,17.70
2022-10-08T07:37:35.294Z,18.00
2022-10-08T07:41:02.278Z,17.50
2022-10-08T07:44:28.932Z,18.90
2022-10-08T07:47:55.795Z,17.70
2022-10-08T07:51:23.398Z,18.70
2022-10-08T07:54:50.356Z,18.60
2022-10-08T07:58:17.245Z,19.70
2022-10-08T08:01:44.520Z,19.90
2022-10-08T08:05:12.598Z,19.40
2022-10-08T08:08:40.670Z,19.30
2022-10-08T08:12:07.323Z,20.50
2022-10-08T08:15:34.420Z,18.10
2022-10-08T08:19:03.051Z,16.80
2022-10-08T08:22:30.642Z,17.70
2022-10-08T08:25:57.592Z,16.90
2022-10-08T08:29:25.371Z,16.00
2022-10-08T08:32:55.167Z,16.40
2022-10-08T08:36:25.874Z,16.30
2022-10-08T08:39:52.784Z,15.40
2022-10-08T08:43:19.858Z,16.70
2022-10-08T08:46:53.514Z,16.80
2022-10-08T08:50:26.292Z,17.30
2022-10-08T08:53:53.824Z,17.10
2022-10-08T08:57:38.148Z,17.40
2022-10-08T09:01:15.494Z,16.30
2022-10-08T09:04:46.333Z,17.40
2022-10-08T09:08:22.369Z,17.20
2022-10-08T09:11:49.326Z,16.60
2022-10-08T09:15:26.952Z,17.40
2022-10-08T09:18:54.883Z,15.80
2022-10-08T09:22:27.555Z,15.30
2022-10-08T09:25:58.960Z,15.00
2022-10-08T09:29:37.779Z,14.40
2022-10-08T09:33:18.653Z,14.40
2022-10-08T09:36:48.267Z,14.40
2022-10-08T09:40:26.773Z,13.60
2022-10-08T09:44:16.238Z,12.90
2022-10-08T09:47:43.582Z,13.10
2022-10-08T09:51:18.962Z,12.20
2022-10-08T09:54:50.328Z,11.60
2022-10-08T09:58:20.654Z,10.70
2022-10-08T10:01:49.931Z,12.70
2022-10-08T10:05:27.273Z,12.40
2022-10-08T10:09:03.659Z,11.40
2022-10-08T10:12:38.066Z,10.40
2022-10-08T10:16:10.180Z,10.20
2022-10-08T10:19:43.479Z,9.80
2022-10-08T10:23:18.010Z,10.50
2022-10-08T10:26:47.471Z,10.30
2022-10-08T10:30:21.206Z,10.90
2022-10-08T10:33:58.950Z,11.40
2022-10-08T10:37:35.433Z,11.20
2022-10-08T10:41:13.093Z,11.30
2022-10-08T10:44:53.454Z,11.20
2022-10-08T10:48:20.032Z,10.60
2022-10-08T10:52:07.373Z,10.10
2022-10-08T10:55:40.215Z,9.80
2022-10-08T10:59:36.032Z,9.10
2022-10-08T11:03:12.064Z,9.20
2022-10-08T11:07:02.974Z,8.70
2022-10-08T11:10:41.847Z,8.70
2022-10-08T11:14:21.319Z,7.80
2022-10-08T11:18:12.170Z,8.30
2022-10-08T11:21:49.672Z,9.60
2022-10-08T11:25:44.673Z,9.00
2022-10-08T11:29:30.159Z,9.30
2022-10-08T11:33:12.883Z,8.60
2022-10-08T11:36:48.893Z,8.70
2022-10-08T11:40:27.167Z,8.80
2022-10-08T11:44:00.909Z,7.40
2022-10-08T11:47:53.843Z,8.00
2022-10-08T11:51:41.251Z,8.00
2022-10-08T11:55:19.134Z,7.60
2022-10-08T11:58:54.596Z,8.00
2022-10-08T12:02:30.110Z,6.90
2022-10-08T12:05:59.096Z,7.60
2022-10-08T12:09:27.732Z,6.70
2022-10-08T12:13:24.425Z,6.90
2022-10-08T12:17:11.913Z,7.10
2022-10-08T12:20:41.629Z,8.10
2022-10-08T12:24:50.354Z,5.70
2022-10-08T12:28:52.131Z,6.30
2022-10-08T12:32:22.002Z,5.40
2022-10-08T12:36:00.499Z,6.60
2022-10-08T12:39:40.985Z,6.30
2022-10-08T12:43:23.280Z,5.00
2022-10-08T12:47:01.057Z,5.20
2022-10-08T12:50:49.812Z,5.20
2022-10-08T12:54:26.404Z,5.00
2022-10-08T12:57:57.058Z,6.30
2022-10-08T13:01:24.897Z,5.90
2022-10-08T13:04:53.869Z,5.80
2022-10-08T13:08:40.174Z,6.20
2022-10-08T13:12:11.169Z,5.60
2022-10-08T13:15:38.741Z,6.80
2022-10-08T13:19:23.814Z,7.10
2022-10-08T13:22:52.711Z,9.00
2022-10-08T13:26:43.263Z,7.70
2022-10-08T13:30:29.336Z,6.90
2022-10-08T13:34:04.054Z,5.90
2022-10-08T13:37:37.392Z,5.60
2022-10-08T13:41:06.617Z,5.70
2022-10-08T13:44:35.358Z,4.70
2022-10-08T13:48:02.302Z,5.30
2022-10-08T13:51:29.975Z,5.40
2022-10-08T13:55:02.666Z,9.80
2022-10-08T13:58:33.460Z,4.70
2022-10-08T14:02:00.807Z,5.90
2022-10-08T14:05:31.838Z,4.10
2022-10-08T14:08:59.288Z,4.00
2022-10-08T14:12:30.342Z,4.30
2022-10-08T14:15:57.173Z,4.60
2022-10-08T14:19:24.067Z,4.20
2022-10-08T14:22:51.985Z,5.10
2022-10-08T14:26:21.920Z,4.70
2022-10-08T14:29:49.087Z,5.10
2022-10-08T14:33:16.050Z,5.30
2022-10-08T14:36:43.876Z,4.30
2022-10-08T14:40:19.873Z,4.00
2022-10-08T14:43:49.303Z,3.30
2022-10-08T14:47:16.370Z,4.00
2022-10-08T14:50:43.889Z,3.20
2022-10-08T14:54:12.641Z,4.10
2022-10-08T14:57:41.922Z,3.50
2022-10-08T15:01:09.409Z,4.80
2022-10-08T15:04:38.598Z,10.90
2022-10-08T15:08:05.516Z,21.10
2022-10-08T15:11:32.603Z,16.80
2022-10-08T15:14:59.815Z,7.40
2022-10-08T15:18:31.208Z,4.70
2022-10-08T15:22:03.307Z,4.60
2022-10-08T15:25:30.047Z,6.40
2022-10-08T15:28:57.367Z,6.50
2022-10-08T15:32:29.646Z,7.10
2022-10-08T15:35:59.008Z,7.30
2022-10-08T15:39:26.754Z,6.70
2022-10-08T15:42:54.396Z,6.30
2022-10-08T15:46:26.306Z,8.10
2022-10-08T15:49:53.280Z,7.90
2022-10-08T15:53:20.251Z,9.20
2022-10-08T15:56:47.419Z,9.50
2022-10-08T16:00:16.377Z,7.40
2022-10-08T16:03:45.027Z,5.60
2022-10-08T16:07:12.383Z,5.90
2022-10-08T16:10:39.695Z,6.60
2022-10-08T16:14:08.956Z,6.60
2022-10-08T16:17:35.900Z,4.90
2022-10-08T16:21:05.727Z,5.00
2022-10-08T16:24:32.673Z,4.00
2022-10-08T16:28:02.504Z,4.50
2022-10-08T16:31:32.606Z,3.90
2022-10-08T16:34:59.149Z,3.20
2022-10-08T16:38:26.666Z,3.80
2022-10-08T16:41:54.191Z,4.50
2022-10-08T16:45:21.447Z,4.00
2022-10-08T16:48:53.771Z,3.90
2022-10-08T16:52:20.850Z,4.10
2022-10-08T16:55:47.735Z,3.70
2022-10-08T16:59:19.345Z,4.50
2022-10-08T17:02:46.838Z,4.30
2022-10-08T17:06:16.730Z,4.60
2022-10-08T17:09:44.898Z,4.50
2022-10-08T17:13:11.757Z,3.40
2022-10-08T17:16:39.900Z,4.40
2022-10-08T17:20:08.186Z,4.60
2022-10-08T17:23:38.473Z,4.30
2022-10-08T17:27:05.925Z,4.70
2022-10-08T17:30:39.746Z,5.30
2022-10-08T17:34:07.712Z,5.20
2022-10-08T17:37:35.411Z,4.60
2022-10-08T17:41:02.576Z,5.60
2022-10-08T17:44:34.295Z,5.10
2022-10-08T17:48:05.445Z,5.90
2022-10-08T17:51:35.043Z,6.10
2022-10-08T17:55:02.638Z,4.90
2022-10-08T17:58:32.190Z,4.30
2022-10-08T18:02:02.670Z,3.70
2022-10-08T18:05:30.550Z,4.60
2022-10-08T18:09:02.428Z,4.40
2022-10-08T18:12:32.727Z,4.40
2022-10-08T18:16:03.925Z,4.50
2022-10-08T18:19:30.530Z,4.50
2022-10-08T18:22:57.643Z,4.60
2022-10-08T18:26:27.118Z,4.60
2022-10-08T18:29:56.668Z,5.90
2022-10-08T18:33:24.852Z,6.50
2022-10-08T18:36:53.097Z,6.40
2022-10-08T18:40:22.595Z,6.80
2022-10-08T18:43:50.926Z,7.20
2022-10-08T18:47:17.434Z,8.20
2022-10-08T18:50:49.199Z,7.50
2022-10-08T18:54:16.085Z,6.90
2022-10-08T18:57:56.047Z,6.30
2022-10-08T19:01:25.701Z,7.50
2022-10-08T19:04:53.431Z,7.60
2022-10-08T19:08:20.440Z,8.50
2022-10-08T19:11:49.288Z,12.20
2022-10-08T19:15:15.963Z,10.70
2022-10-08T19:18:43.939Z,8.30
2022-10-08T19:22:13.153Z,7.30
2022-10-08T19:25:40.318Z,8.00
2022-10-08T19:29:07.618Z,7.20
2022-10-08T19:32:34.691Z,8.30
2022-10-08T19:36:05.046Z,7.60
2022-10-08T19:39:34.177Z,6.90
2022-10-08T19:43:03.579Z,7.90
2022-10-08T19:46:31.166Z,7.80
2022-10-08T19:49:58.639Z,7.40
2022-10-08T19:53:25.257Z,7.90
2022-10-08T19:56:51.872Z,6.90
2022-10-08T20:00:19.791Z,7.70
2022-10-08T20:03:48.490Z,7.60
2022-10-08T20:07:16.038Z,7.30
2022-10-08T20:10:44.035Z,6.90
2022-10-08T20:14:10.971Z,7.40
2022-10-08T20:17:38.023Z,9.70
2022-10-08T20:21:07.280Z,8.30
2022-10-08T20:24:34.365Z,8.00
2022-10-08T20:28:01.182Z,7.20
2022-10-08T20:31:30.151Z,7.30
2022-10-08T20:34:58.316Z,7.70
2022-10-08T20:38:27.709Z,7.50
2022-10-08T20:41:54.657Z,7.30
2022-10-08T20:45:22.320Z,7.60
2022-10-08T20:48:50.024Z,7.80
2022-10-08T20:52:18.585Z,7.00
2022-10-08T20:55:45.532Z,7.20
2022-10-08T20:59:16.183Z,7.10
2022-10-08T21:02:44.992Z,6.20
2022-10-08T21:06:14.142Z,6.70
2022-10-08T21:09:43.651Z,7.40
2022-10-08T21:13:14.098Z,6.60
2022-10-08T21:16:42.988Z,6.40
2022-10-08T21:20:13.690Z,6.70
2022-10-08T21:23:42.012Z,6.20
2022-10-08T21:27:11.162Z,6.20
2022-10-08T21:30:38.893Z,5.70
2022-10-08T21:34:08.570Z,5.30
2022-10-08T21:37:36.424Z,5.00
2022-10-08T21:41:14.864Z,5.50
2022-10-08T21:49:04.716Z,4.50
2022-10-08T21:52:34.259Z,3.80
2022-10-08T21:56:05.022Z,3.20
2022-10-08T21:59:32.281Z,3.20
2022-10-08T22:02:59.064Z,2.80
2022-10-08T22:06:27.111Z,2.80
2022-10-08T22:10:01.892Z,2.40
2022-10-08T22:13:29.041Z,2.90
2022-10-08T22:16:57.474Z,2.90
2022-10-08T22:20:24.189Z,2.50
2022-10-08T22:23:53.288Z,1.90
2022-10-08T22:27:20.243Z,1.90
2022-10-08T22:30:47.083Z,1.90
2022-10-08T22:34:14.603Z,1.70
2022-10-08T22:37:42.663Z,1.80
2022-10-08T22:41:14.321Z,1.90
2022-10-08T22:44:44.670Z,2.00
2022-10-08T22:48:13.997Z,1.90
2022-10-08T22:51:46.412Z,1.50
2022-10-08T22:55:18.380Z,2.00
2022-10-08T22:59:00.909Z,1.80
2022-10-08T23:02:29.028Z,2.50
2022-10-08T23:06:08.217Z,2.00
2022-10-08T23:09:34.834Z,2.00
2022-10-08T23:13:04.478Z,2.30
2022-10-08T23:16:38.411Z,2.00
2022-10-08T23:20:06.001Z,2.30
2022-10-08T23:23:33.795Z,2.00
2022-10-08T23:27:00.977Z,2.40
2022-10-08T23:30:42.561Z,1.50
2022-10-08T23:34:10.366Z,2.50
2022-10-08T23:37:37.635Z,2.20
2022-10-08T23:41:06.539Z,1.90
2022-10-08T23:44:33.708Z,2.00
2022-10-08T23:48:01.616Z,1.90
2022-10-08T23:51:32.007Z,1.70
2022-10-08T23:54:59.046Z,1.50
2022-10-08T23:58:29.232Z,1.90
